sensor_id;sensor_type;location;lat;lon;timestamp;P1;durP1;ratioP1;P2;durP2;ratioP2
6840;SDS011;3458;53.678;14.080;2022-09-09T00:01:36;12.93;;;6.33;;
6840;SDS011;3458;53.678;14.080;2022-09-09T00:04:28;11.20;;;6.40;;
6840;SDS011;3458;53.678;14.080;2022-09-09T00:15:13;6.80;;;5.73;;
6840;SDS011;3458;53.678;14.080;2022-09-09T00:22:52;7.57;;;6.10;;
6840;SDS011;3458;53.678;14.080;2022-09-09T00:25:30;5.87;;;5.03;;
6840;SDS011;3458;53.678;14.080;2022-09-09T00:28:09;7.33;;;5.13;;
6840;SDS011;3458;53.678;14.080;2022-09-09T00:30:43;6.50;;;5.40;;
6840;SDS011;3458;53.678;14.080;2022-09-09T00:33:10;5.53;;;5.00;;
6840;SDS011;3458;53.678;14.080;2022-09-09T00:35:42;11.53;;;6.23;;
6840;SDS011;3458;53.678;14.080;2022-09-09T00:38:24;6.27;;;5.00;;
6840;SDS011;3458;53.678;14.080;2022-09-09T00:44:20;6.50;;;5.20;;
6840;SDS011;3458;53.678;14.080;2022-09-09T00:46:56;6.43;;;5.30;;
6840;SDS011;3458;53.678;14.080;2022-09-09T00:52:14;5.20;;;4.70;;
6840;SDS011;3458;53.678;14.080;2022-09-09T00:57:33;8.00;;;5.30;;
6840;SDS011;3458;53.678;14.080;2022-09-09T01:08:32;8.50;;;5.87;;
6840;SDS011;3458;53.678;14.080;2022-09-09T01:11:23;7.10;;;5.90;;
6840;SDS011;3458;53.678;14.080;2022-09-09T01:14:10;6.70;;;5.60;;
6840;SDS011;3458;53.678;14.080;2022-09-09T01:16:38;6.77;;;5.50;;
6840;SDS011;3458;53.678;14.080;2022-09-09T01:19:07;10.20;;;6.10;;
6840;SDS011;3458;53.678;14.080;2022-09-09T01:21:56;6.77;;;6.10;;
6840;SDS011;3458;53.678;14.080;2022-09-09T01:24:35;10.57;;;5.27;;
6840;SDS011;3458;53.678;14.080;2022-09-09T01:27:06;6.83;;;6.10;;
6840;SDS011;3458;53.678;14.080;2022-09-09T01:29:32;5.83;;;5.23;;
6840;SDS011;3458;53.678;14.080;2022-09-09T01:32:02;6.73;;;4.97;;
6840;SDS011;3458;53.678;14.080;2022-09-09T01:34:48;6.57;;;5.47;;
6840;SDS011;3458;53.678;14.080;2022-09-09T01:37:16;5.77;;;5.17;;
6840;SDS011;3458;53.678;14.080;2022-09-09T01:39:42;6.70;;;5.63;;
6840;SDS011;3458;53.678;14.080;2022-09-09T01:42:09;5.60;;;5.10;;
6840;SDS011;3458;53.678;14.080;2022-09-09T01:44:38;8.20;;;6.03;;
6840;SDS011;3458;53.678;14.080;2022-09-09T01:47:04;9.30;;;6.00;;
6840;SDS011;3458;53.678;14.080;2022-09-09T01:49:31;9.80;;;6.70;;
6840;SDS011;3458;53.678;14.080;2022-09-09T01:51:57;7.07;;;6.37;;
6840;SDS011;3458;53.678;14.080;2022-09-09T01:54:25;8.80;;;6.20;;
6840;SDS011;3458;53.678;14.080;2022-09-09T01:57:39;8.80;;;7.57;;
6840;SDS011;3458;53.678;14.080;2022-09-09T02:00:10;7.67;;;6.53;;
6840;SDS011;3458;53.678;14.080;2022-09-09T02:05:35;9.70;;;7.23;;
6840;SDS011;3458;53.678;14.080;2022-09-09T02:10:35;9.27;;;7.57;;
6840;SDS011;3458;53.678;14.080;2022-09-09T02:13:12;10.00;;;6.97;;
6840;SDS011;3458;53.678;14.080;2022-09-09T02:18:30;10.10;;;7.77;;
6840;SDS011;3458;53.678;14.080;2022-09-09T02:21:00;9.77;;;7.50;;
6840;SDS011;3458;53.678;14.080;2022-09-09T02:23:27;9.13;;;7.43;;
6840;SDS011;3458;53.678;14.080;2022-09-09T02:25:54;14.73;;;7.83;;
6840;SDS011;3458;53.678;14.080;2022-09-09T02:28:23;8.97;;;7.40;;
6840;SDS011;3458;53.678;14.080;2022-09-09T02:30:53;11.20;;;7.50;;
6840;SDS011;3458;53.678;14.080;2022-09-09T02:33:21;9.87;;;7.20;;
6840;SDS011;3458;53.678;14.080;2022-09-09T02:35:51;9.27;;;6.83;;
6840;SDS011;3458;53.678;14.080;2022-09-09T02:38:17;9.30;;;7.93;;
6840;SDS011;3458;53.678;14.080;2022-09-09T02:40:46;10.20;;;7.50;;
6840;SDS011;3458;53.678;14.080;2022-09-09T02:43:13;10.67;;;7.67;;
6840;SDS011;3458;53.678;14.080;2022-09-09T02:45:42;8.77;;;7.40;;
6840;SDS011;3458;53.678;14.080;2022-09-09T02:48:36;12.67;;;8.40;;
6840;SDS011;3458;53.678;14.080;2022-09-09T02:51:23;8.43;;;7.17;;
6840;SDS011;3458;53.678;14.080;2022-09-09T02:56:36;10.13;;;7.73;;
6840;SDS011;3458;53.678;14.080;2022-09-09T02:59:06;8.90;;;8.00;;
6840;SDS011;3458;53.678;14.080;2022-09-09T03:01:32;16.20;;;9.70;;
6840;SDS011;3458;53.678;14.080;2022-09-09T03:03:58;10.37;;;7.83;;
6840;SDS011;3458;53.678;14.080;2022-09-09T03:06:23;11.10;;;7.90;;
6840;SDS011;3458;53.678;14.080;2022-09-09T03:08:49;10.33;;;7.77;;
6840;SDS011;3458;53.678;14.080;2022-09-09T03:11:15;8.93;;;7.53;;
6840;SDS011;3458;53.678;14.080;2022-09-09T03:13:41;9.70;;;8.40;;
6840;SDS011;3458;53.678;14.080;2022-09-09T03:16:07;9.77;;;8.20;;
6840;SDS011;3458;53.678;14.080;2022-09-09T03:18:32;10.23;;;7.57;;
6840;SDS011;3458;53.678;14.080;2022-09-09T03:20:59;11.23;;;8.83;;
6840;SDS011;3458;53.678;14.080;2022-09-09T03:23:25;10.63;;;8.23;;
6840;SDS011;3458;53.678;14.080;2022-09-09T03:25:50;11.90;;;8.13;;
6840;SDS011;3458;53.678;14.080;2022-09-09T03:28:17;12.07;;;9.73;;
6840;SDS011;3458;53.678;14.080;2022-09-09T03:30:43;11.90;;;8.50;;
6840;SDS011;3458;53.678;14.080;2022-09-09T03:33:09;13.20;;;9.30;;
6840;SDS011;3458;53.678;14.080;2022-09-09T03:35:34;14.03;;;9.60;;
6840;SDS011;3458;53.678;14.080;2022-09-09T03:38:00;11.43;;;8.23;;
6840;SDS011;3458;53.678;14.080;2022-09-09T03:40:26;12.37;;;9.40;;
6840;SDS011;3458;53.678;14.080;2022-09-09T03:42:52;14.37;;;9.00;;
6840;SDS011;3458;53.678;14.080;2022-09-09T03:45:17;12.83;;;8.20;;
6840;SDS011;3458;53.678;14.080;2022-09-09T03:47:43;12.90;;;10.00;;
6840;SDS011;3458;53.678;14.080;2022-09-09T03:50:08;9.67;;;8.03;;
6840;SDS011;3458;53.678;14.080;2022-09-09T03:52:38;14.10;;;9.30;;
6840;SDS011;3458;53.678;14.080;2022-09-09T03:55:05;14.73;;;8.43;;
6840;SDS011;3458;53.678;14.080;2022-09-09T03:57:32;9.70;;;8.70;;
6840;SDS011;3458;53.678;14.080;2022-09-09T04:00:00;13.10;;;8.83;;
6840;SDS011;3458;53.678;14.080;2022-09-09T04:02:27;11.67;;;8.83;;
6840;SDS011;3458;53.678;14.080;2022-09-09T04:04:53;11.80;;;9.10;;
6840;SDS011;3458;53.678;14.080;2022-09-09T04:07:19;14.77;;;8.80;;
6840;SDS011;3458;53.678;14.080;2022-09-09T04:09:44;10.77;;;9.10;;
6840;SDS011;3458;53.678;14.080;2022-09-09T04:12:10;13.80;;;9.43;;
6840;SDS011;3458;53.678;14.080;2022-09-09T04:14:38;17.97;;;12.87;;
6840;SDS011;3458;53.678;14.080;2022-09-09T04:17:03;12.90;;;9.00;;
6840;SDS011;3458;53.678;14.080;2022-09-09T04:19:31;12.37;;;8.57;;
6840;SDS011;3458;53.678;14.080;2022-09-09T04:21:57;14.10;;;10.03;;
6840;SDS011;3458;53.678;14.080;2022-09-09T04:24:23;16.20;;;11.07;;
6840;SDS011;3458;53.678;14.080;2022-09-09T04:26:50;13.37;;;9.80;;
6840;SDS011;3458;53.678;14.080;2022-09-09T04:29:15;15.23;;;11.10;;
6840;SDS011;3458;53.678;14.080;2022-09-09T04:31:41;14.73;;;10.60;;
6840;SDS011;3458;53.678;14.080;2022-09-09T04:34:08;14.77;;;10.40;;
6840;SDS011;3458;53.678;14.080;2022-09-09T04:36:34;15.40;;;10.67;;
6840;SDS011;3458;53.678;14.080;2022-09-09T04:38:59;15.87;;;11.17;;
6840;SDS011;3458;53.678;14.080;2022-09-09T04:41:26;17.90;;;11.57;;
6840;SDS011;3458;53.678;14.080;2022-09-09T04:43:52;17.23;;;11.07;;
6840;SDS011;3458;53.678;14.080;2022-09-09T04:46:18;16.60;;;10.83;;
6840;SDS011;3458;53.678;14.080;2022-09-09T04:48:44;19.60;;;12.37;;
6840;SDS011;3458;53.678;14.080;2022-09-09T04:51:11;17.13;;;11.73;;
6840;SDS011;3458;53.678;14.080;2022-09-09T04:53:38;23.87;;;13.10;;
6840;SDS011;3458;53.678;14.080;2022-09-09T04:56:08;16.57;;;12.33;;
6840;SDS011;3458;53.678;14.080;2022-09-09T04:58:39;14.17;;;10.73;;
6840;SDS011;3458;53.678;14.080;2022-09-09T05:01:12;14.30;;;10.10;;
6840;SDS011;3458;53.678;14.080;2022-09-09T05:03:39;17.90;;;12.23;;
6840;SDS011;3458;53.678;14.080;2022-09-09T05:06:05;24.17;;;14.80;;
6840;SDS011;3458;53.678;14.080;2022-09-09T05:08:36;20.80;;;14.20;;
6840;SDS011;3458;53.678;14.080;2022-09-09T05:11:02;27.90;;;14.50;;
6840;SDS011;3458;53.678;14.080;2022-09-09T05:13:29;24.63;;;13.00;;
6840;SDS011;3458;53.678;14.080;2022-09-09T05:15:56;20.70;;;13.40;;
6840;SDS011;3458;53.678;14.080;2022-09-09T05:18:21;24.70;;;13.33;;
6840;SDS011;3458;53.678;14.080;2022-09-09T05:20:48;25.83;;;14.43;;
6840;SDS011;3458;53.678;14.080;2022-09-09T05:23:14;22.67;;;13.17;;
6840;SDS011;3458;53.678;14.080;2022-09-09T05:25:39;22.03;;;13.97;;
6840;SDS011;3458;53.678;14.080;2022-09-09T05:28:08;29.70;;;14.80;;
6840;SDS011;3458;53.678;14.080;2022-09-09T05:30:34;25.40;;;13.20;;
6840;SDS011;3458;53.678;14.080;2022-09-09T05:33:00;26.83;;;14.20;;
6840;SDS011;3458;53.678;14.080;2022-09-09T05:35:26;26.37;;;14.27;;
6840;SDS011;3458;53.678;14.080;2022-09-09T05:37:52;22.20;;;13.57;;
6840;SDS011;3458;53.678;14.080;2022-09-09T05:40:17;25.50;;;14.90;;
6840;SDS011;3458;53.678;14.080;2022-09-09T05:42:43;21.00;;;13.17;;
6840;SDS011;3458;53.678;14.080;2022-09-09T05:45:09;22.40;;;12.80;;
6840;SDS011;3458;53.678;14.080;2022-09-09T05:47:35;22.33;;;13.57;;
6840;SDS011;3458;53.678;14.080;2022-09-09T05:50:02;26.17;;;13.30;;
6840;SDS011;3458;53.678;14.080;2022-09-09T05:52:28;22.73;;;13.60;;
6840;SDS011;3458;53.678;14.080;2022-09-09T05:54:54;24.50;;;14.83;;
6840;SDS011;3458;53.678;14.080;2022-09-09T05:57:20;20.43;;;13.80;;
6840;SDS011;3458;53.678;14.080;2022-09-09T05:59:45;22.90;;;14.70;;
6840;SDS011;3458;53.678;14.080;2022-09-09T06:02:11;23.07;;;14.40;;
6840;SDS011;3458;53.678;14.080;2022-09-09T06:04:38;23.90;;;14.30;;
6840;SDS011;3458;53.678;14.080;2022-09-09T06:07:04;21.80;;;14.73;;
6840;SDS011;3458;53.678;14.080;2022-09-09T06:09:30;22.40;;;13.23;;
6840;SDS011;3458;53.678;14.080;2022-09-09T06:11:56;22.13;;;13.60;;
6840;SDS011;3458;53.678;14.080;2022-09-09T06:14:23;23.00;;;13.70;;
6840;SDS011;3458;53.678;14.080;2022-09-09T06:16:50;25.13;;;13.93;;
6840;SDS011;3458;53.678;14.080;2022-09-09T06:19:15;27.57;;;17.43;;
6840;SDS011;3458;53.678;14.080;2022-09-09T06:21:41;24.33;;;14.67;;
6840;SDS011;3458;53.678;14.080;2022-09-09T06:24:09;23.07;;;13.93;;
6840;SDS011;3458;53.678;14.080;2022-09-09T06:26:35;22.43;;;14.83;;
6840;SDS011;3458;53.678;14.080;2022-09-09T06:29:06;26.23;;;16.27;;
6840;SDS011;3458;53.678;14.080;2022-09-09T06:31:32;27.20;;;14.90;;
6840;SDS011;3458;53.678;14.080;2022-09-09T06:33:59;26.03;;;16.23;;
6840;SDS011;3458;53.678;14.080;2022-09-09T06:36:29;25.00;;;14.00;;
6840;SDS011;3458;53.678;14.080;2022-09-09T06:38:56;21.63;;;13.77;;
6840;SDS011;3458;53.678;14.080;2022-09-09T06:41:23;20.37;;;13.43;;
6840;SDS011;3458;53.678;14.080;2022-09-09T06:43:53;22.67;;;12.83;;
6840;SDS011;3458;53.678;14.080;2022-09-09T06:46:23;25.37;;;12.70;;
6840;SDS011;3458;53.678;14.080;2022-09-09T06:48:53;19.87;;;12.80;;
6840;SDS011;3458;53.678;14.080;2022-09-09T06:51:24;26.50;;;14.80;;
6840;SDS011;3458;53.678;14.080;2022-09-09T06:53:57;21.80;;;14.07;;
6840;SDS011;3458;53.678;14.080;2022-09-09T06:59:00;22.60;;;13.80;;
6840;SDS011;3458;53.678;14.080;2022-09-09T07:01:29;18.60;;;13.40;;
6840;SDS011;3458;53.678;14.080;2022-09-09T07:03:56;21.90;;;11.83;;
6840;SDS011;3458;53.678;14.080;2022-09-09T07:06:25;21.90;;;13.47;;
6840;SDS011;3458;53.678;14.080;2022-09-09T07:08:52;40.77;;;20.43;;
6840;SDS011;3458;53.678;14.080;2022-09-09T07:11:20;23.20;;;15.07;;
6840;SDS011;3458;53.678;14.080;2022-09-09T07:13:47;22.50;;;12.83;;
6840;SDS011;3458;53.678;14.080;2022-09-09T07:16:14;25.20;;;12.53;;
6840;SDS011;3458;53.678;14.080;2022-09-09T07:18:42;25.30;;;13.13;;
6840;SDS011;3458;53.678;14.080;2022-09-09T07:21:09;23.83;;;13.10;;
6840;SDS011;3458;53.678;14.080;2022-09-09T07:23:37;24.13;;;13.80;;
6840;SDS011;3458;53.678;14.080;2022-09-09T07:26:07;20.00;;;13.33;;
6840;SDS011;3458;53.678;14.080;2022-09-09T07:28:37;21.03;;;13.40;;
6840;SDS011;3458;53.678;14.080;2022-09-09T07:31:03;21.03;;;14.67;;
6840;SDS011;3458;53.678;14.080;2022-09-09T07:33:30;24.53;;;13.77;;
6840;SDS011;3458;53.678;14.080;2022-09-09T07:36:05;23.93;;;14.00;;
6840;SDS011;3458;53.678;14.080;2022-09-09T07:38:33;20.73;;;12.93;;
6840;SDS011;3458;53.678;14.080;2022-09-09T07:41:04;18.17;;;12.10;;
6840;SDS011;3458;53.678;14.080;2022-09-09T07:43:37;22.87;;;12.53;;
6840;SDS011;3458;53.678;14.080;2022-09-09T07:46:04;21.20;;;13.30;;
6840;SDS011;3458;53.678;14.080;2022-09-09T07:48:30;17.33;;;12.80;;
6840;SDS011;3458;53.678;14.080;2022-09-09T07:51:30;17.93;;;11.90;;
6840;SDS011;3458;53.678;14.080;2022-09-09T07:53:54;18.20;;;12.43;;
6840;SDS011;3458;53.678;14.080;2022-09-09T07:56:26;17.00;;;12.53;;
6840;SDS011;3458;53.678;14.080;2022-09-09T07:58:53;14.60;;;10.87;;
6840;SDS011;3458;53.678;14.080;2022-09-09T08:01:24;18.60;;;12.57;;
6840;SDS011;3458;53.678;14.080;2022-09-09T08:03:54;15.57;;;11.60;;
6840;SDS011;3458;53.678;14.080;2022-09-09T08:06:24;17.07;;;13.17;;
6840;SDS011;3458;53.678;14.080;2022-09-09T08:08:50;14.07;;;11.30;;
6840;SDS011;3458;53.678;14.080;2022-09-09T08:11:16;17.10;;;11.70;;
6840;SDS011;3458;53.678;14.080;2022-09-09T08:13:42;17.37;;;11.60;;
6840;SDS011;3458;53.678;14.080;2022-09-09T08:16:10;18.07;;;10.30;;
6840;SDS011;3458;53.678;14.080;2022-09-09T08:18:40;19.87;;;11.57;;
6840;SDS011;3458;53.678;14.080;2022-09-09T08:21:13;21.03;;;11.77;;
6840;SDS011;3458;53.678;14.080;2022-09-09T08:23:40;20.27;;;13.03;;
6840;SDS011;3458;53.678;14.080;2022-09-09T08:26:09;16.57;;;13.20;;
6840;SDS011;3458;53.678;14.080;2022-09-09T08:28:37;15.93;;;12.77;;
6840;SDS011;3458;53.678;14.080;2022-09-09T08:31:08;15.20;;;11.30;;
6840;SDS011;3458;53.678;14.080;2022-09-09T08:33:35;17.73;;;11.57;;
6840;SDS011;3458;53.678;14.080;2022-09-09T08:36:03;17.97;;;11.67;;
6840;SDS011;3458;53.678;14.080;2022-09-09T08:38:29;14.47;;;11.13;;
6840;SDS011;3458;53.678;14.080;2022-09-09T08:40:57;19.77;;;11.43;;
6840;SDS011;3458;53.678;14.080;2022-09-09T08:43:33;12.73;;;10.17;;
6840;SDS011;3458;53.678;14.080;2022-09-09T08:46:13;15.37;;;11.30;;
6840;SDS011;3458;53.678;14.080;2022-09-09T08:48:47;13.53;;;10.43;;
6840;SDS011;3458;53.678;14.080;2022-09-09T08:51:27;15.77;;;11.53;;
6840;SDS011;3458;53.678;14.080;2022-09-09T08:53:55;15.30;;;10.47;;
6840;SDS011;3458;53.678;14.080;2022-09-09T08:56:25;18.77;;;10.10;;
6840;SDS011;3458;53.678;14.080;2022-09-09T08:58:53;15.70;;;10.77;;
6840;SDS011;3458;53.678;14.080;2022-09-09T09:09:32;12.40;;;9.63;;
6840;SDS011;3458;53.678;14.080;2022-09-09T09:12:20;16.70;;;11.60;;
6840;SDS011;3458;53.678;14.080;2022-09-09T09:14:48;13.07;;;9.67;;
6840;SDS011;3458;53.678;14.080;2022-09-09T09:17:20;12.10;;;9.43;;
6840;SDS011;3458;53.678;14.080;2022-09-09T09:19:48;14.67;;;10.27;;
6840;SDS011;3458;53.678;14.080;2022-09-09T09:25:25;12.13;;;10.17;;
6840;SDS011;3458;53.678;14.080;2022-09-09T09:28:00;12.77;;;9.40;;
6840;SDS011;3458;53.678;14.080;2022-09-09T09:30:29;16.30;;;9.20;;
6840;SDS011;3458;53.678;14.080;2022-09-09T09:33:18;16.60;;;9.40;;
6840;SDS011;3458;53.678;14.080;2022-09-09T09:35:56;13.23;;;9.40;;
6840;SDS011;3458;53.678;14.080;2022-09-09T09:38:25;14.73;;;10.20;;
6840;SDS011;3458;53.678;14.080;2022-09-09T09:40:57;11.60;;;8.57;;
6840;SDS011;3458;53.678;14.080;2022-09-09T09:43:24;12.90;;;8.93;;
6840;SDS011;3458;53.678;14.080;2022-09-09T09:46:04;11.43;;;9.17;;
6840;SDS011;3458;53.678;14.080;2022-09-09T09:48:31;12.33;;;8.93;;
6840;SDS011;3458;53.678;14.080;2022-09-09T09:50:58;10.03;;;8.80;;
6840;SDS011;3458;53.678;14.080;2022-09-09T09:56:00;10.43;;;8.33;;
6840;SDS011;3458;53.678;14.080;2022-09-09T09:58:27;11.43;;;8.60;;
6840;SDS011;3458;53.678;14.080;2022-09-09T10:00:58;12.43;;;7.73;;
6840;SDS011;3458;53.678;14.080;2022-09-09T10:03:26;9.63;;;7.37;;
6840;SDS011;3458;53.678;14.080;2022-09-09T10:05:54;7.60;;;6.83;;
6840;SDS011;3458;53.678;14.080;2022-09-09T10:08:21;9.20;;;7.20;;
6840;SDS011;3458;53.678;14.080;2022-09-09T10:10:57;12.33;;;5.60;;
6840;SDS011;3458;53.678;14.080;2022-09-09T10:13:34;9.67;;;6.63;;
6840;SDS011;3458;53.678;14.080;2022-09-09T10:16:22;9.20;;;6.27;;
6840;SDS011;3458;53.678;14.080;2022-09-09T10:18:59;8.73;;;4.90;;
6840;SDS011;3458;53.678;14.080;2022-09-09T10:30:16;6.33;;;3.80;;
6840;SDS011;3458;53.678;14.080;2022-09-09T10:32:46;6.27;;;4.50;;
6840;SDS011;3458;53.678;14.080;2022-09-09T10:35:35;8.00;;;4.00;;
6840;SDS011;3458;53.678;14.080;2022-09-09T10:38:18;7.83;;;3.70;;
6840;SDS011;3458;53.678;14.080;2022-09-09T10:48:48;5.27;;;4.03;;
6840;SDS011;3458;53.678;14.080;2022-09-09T10:51:35;7.30;;;4.50;;
6840;SDS011;3458;53.678;14.080;2022-09-09T10:57:04;4.27;;;3.40;;
6840;SDS011;3458;53.678;14.080;2022-09-09T10:59:37;3.80;;;3.40;;
6840;SDS011;3458;53.678;14.080;2022-09-09T11:04:54;3.97;;;3.50;;
6840;SDS011;3458;53.678;14.080;2022-09-09T11:07:33;4.27;;;3.87;;
6840;SDS011;3458;53.678;14.080;2022-09-09T11:10:06;5.27;;;3.93;;
6840;SDS011;3458;53.678;14.080;2022-09-09T11:12:42;5.27;;;3.73;;
6840;SDS011;3458;53.678;14.080;2022-09-09T11:15:23;8.37;;;3.47;;
6840;SDS011;3458;53.678;14.080;2022-09-09T11:17:56;7.43;;;3.80;;
6840;SDS011;3458;53.678;14.080;2022-09-09T11:20:24;5.83;;;4.50;;
6840;SDS011;3458;53.678;14.080;2022-09-09T11:22:52;7.43;;;5.10;;
6840;SDS011;3458;53.678;14.080;2022-09-09T11:25:42;6.87;;;5.77;;
6840;SDS011;3458;53.678;14.080;2022-09-09T11:31:36;7.23;;;5.70;;
6840;SDS011;3458;53.678;14.080;2022-09-09T11:34:27;6.60;;;5.37;;
6840;SDS011;3458;53.678;14.080;2022-09-09T11:37:02;8.03;;;6.90;;
6840;SDS011;3458;53.678;14.080;2022-09-09T11:44:37;6.30;;;5.57;;
6840;SDS011;3458;53.678;14.080;2022-09-09T11:47:03;7.77;;;6.97;;
6840;SDS011;3458;53.678;14.080;2022-09-09T11:49:41;8.93;;;6.97;;
6840;SDS011;3458;53.678;14.080;2022-09-09T11:52:11;8.93;;;5.90;;
6840;SDS011;3458;53.678;14.080;2022-09-09T11:54:57;7.53;;;6.33;;
6840;SDS011;3458;53.678;14.080;2022-09-09T11:57:49;9.83;;;6.27;;
6840;SDS011;3458;53.678;14.080;2022-09-09T12:00:31;5.90;;;5.30;;
6840;SDS011;3458;53.678;14.080;2022-09-09T12:03:03;5.20;;;4.70;;
6840;SDS011;3458;53.678;14.080;2022-09-09T12:05:36;4.80;;;4.30;;
6840;SDS011;3458;53.678;14.080;2022-09-09T12:08:08;7.73;;;5.73;;
6840;SDS011;3458;53.678;14.080;2022-09-09T12:10:38;6.13;;;4.83;;
6840;SDS011;3458;53.678;14.080;2022-09-09T12:13:23;5.80;;;5.27;;
6840;SDS011;3458;53.678;14.080;2022-09-09T12:15:51;6.93;;;5.43;;
6840;SDS011;3458;53.678;14.080;2022-09-09T12:18:26;5.30;;;3.77;;
6840;SDS011;3458;53.678;14.080;2022-09-09T12:23:39;3.33;;;3.07;;
6840;SDS011;3458;53.678;14.080;2022-09-09T12:26:28;6.03;;;4.13;;
6840;SDS011;3458;53.678;14.080;2022-09-09T12:29:02;7.00;;;3.50;;
6840;SDS011;3458;53.678;14.080;2022-09-09T12:31:50;3.07;;;2.77;;
6840;SDS011;3458;53.678;14.080;2022-09-09T12:34:43;3.13;;;2.87;;
6840;SDS011;3458;53.678;14.080;2022-09-09T12:40:24;3.37;;;2.67;;
6840;SDS011;3458;53.678;14.080;2022-09-09T12:42:50;3.83;;;2.90;;
6840;SDS011;3458;53.678;14.080;2022-09-09T12:50:33;3.60;;;2.50;;
6840;SDS011;3458;53.678;14.080;2022-09-09T12:53:09;5.23;;;2.67;;
6840;SDS011;3458;53.678;14.080;2022-09-09T12:55:48;6.00;;;2.43;;
6840;SDS011;3458;53.678;14.080;2022-09-09T12:58:17;2.60;;;2.37;;
6840;SDS011;3458;53.678;14.080;2022-09-09T13:00:55;4.00;;;3.03;;
6840;SDS011;3458;53.678;14.080;2022-09-09T13:03:21;3.23;;;2.07;;
6840;SDS011;3458;53.678;14.080;2022-09-09T13:05:47;3.57;;;2.73;;
6840;SDS011;3458;53.678;14.080;2022-09-09T13:08:14;2.33;;;2.23;;
6840;SDS011;3458;53.678;14.080;2022-09-09T13:10:50;1.93;;;1.83;;
6840;SDS011;3458;53.678;14.080;2022-09-09T13:13:20;4.50;;;2.40;;
6840;SDS011;3458;53.678;14.080;2022-09-09T13:15:49;3.30;;;1.93;;
6840;SDS011;3458;53.678;14.080;2022-09-09T13:18:23;2.63;;;2.17;;
6840;SDS011;3458;53.678;14.080;2022-09-09T13:20:52;3.33;;;2.53;;
6840;SDS011;3458;53.678;14.080;2022-09-09T13:23:18;4.33;;;2.57;;
6840;SDS011;3458;53.678;14.080;2022-09-09T13:25:59;4.23;;;2.20;;
6840;SDS011;3458;53.678;14.080;2022-09-09T13:28:28;3.10;;;1.90;;
6840;SDS011;3458;53.678;14.080;2022-09-09T13:30:55;1.90;;;1.60;;
6840;SDS011;3458;53.678;14.080;2022-09-09T13:33:32;3.13;;;1.83;;
6840;SDS011;3458;53.678;14.080;2022-09-09T13:36:05;2.57;;;1.87;;
6840;SDS011;3458;53.678;14.080;2022-09-09T13:38:40;4.07;;;3.20;;
6840;SDS011;3458;53.678;14.080;2022-09-09T13:41:20;1.83;;;1.73;;
6840;SDS011;3458;53.678;14.080;2022-09-09T13:43:50;4.80;;;1.87;;
6840;SDS011;3458;53.678;14.080;2022-09-09T13:49:16;1.60;;;1.50;;
6840;SDS011;3458;53.678;14.080;2022-09-09T13:51:49;1.87;;;1.70;;
6840;SDS011;3458;53.678;14.080;2022-09-09T13:54:18;4.10;;;1.67;;
6840;SDS011;3458;53.678;14.080;2022-09-09T13:56:45;10.30;;;8.10;;
6840;SDS011;3458;53.678;14.080;2022-09-09T13:59:15;36.17;;;27.30;;
6840;SDS011;3458;53.678;14.080;2022-09-09T14:01:44;3.70;;;2.63;;
6840;SDS011;3458;53.678;14.080;2022-09-09T14:04:10;3.37;;;2.50;;
6840;SDS011;3458;53.678;14.080;2022-09-09T14:06:36;2.80;;;2.17;;
6840;SDS011;3458;53.678;14.080;2022-09-09T14:09:09;4.07;;;2.20;;
6840;SDS011;3458;53.678;14.080;2022-09-09T14:11:36;4.33;;;1.97;;
6840;SDS011;3458;53.678;14.080;2022-09-09T14:14:02;4.17;;;1.70;;
6840;SDS011;3458;53.678;14.080;2022-09-09T14:16:28;3.50;;;2.03;;
6840;SDS011;3458;53.678;14.080;2022-09-09T14:18:54;3.20;;;2.60;;
6840;SDS011;3458;53.678;14.080;2022-09-09T14:21:21;5.73;;;2.37;;
6840;SDS011;3458;53.678;14.080;2022-09-09T14:23:47;6.47;;;2.47;;
6840;SDS011;3458;53.678;14.080;2022-09-09T14:26:13;6.73;;;2.00;;
6840;SDS011;3458;53.678;14.080;2022-09-09T14:28:39;3.57;;;2.23;;
6840;SDS011;3458;53.678;14.080;2022-09-09T14:31:05;3.73;;;2.07;;
6840;SDS011;3458;53.678;14.080;2022-09-09T14:33:31;5.47;;;2.33;;
6840;SDS011;3458;53.678;14.080;2022-09-09T14:36:00;1.77;;;1.67;;
6840;SDS011;3458;53.678;14.080;2022-09-09T14:38:33;4.20;;;2.30;;
6840;SDS011;3458;53.678;14.080;2022-09-09T14:41:04;2.30;;;1.73;;
6840;SDS011;3458;53.678;14.080;2022-09-09T14:43:31;3.83;;;1.70;;
6840;SDS011;3458;53.678;14.080;2022-09-09T14:46:09;4.67;;;1.67;;
6840;SDS011;3458;53.678;14.080;2022-09-09T14:48:36;3.60;;;1.63;;
6840;SDS011;3458;53.678;14.080;2022-09-09T14:51:09;1.67;;;1.20;;
6840;SDS011;3458;53.678;14.080;2022-09-09T14:53:40;2.50;;;1.67;;
6840;SDS011;3458;53.678;14.080;2022-09-09T14:56:10;3.73;;;1.73;;
6840;SDS011;3458;53.678;14.080;2022-09-09T14:58:41;6.43;;;1.90;;
6840;SDS011;3458;53.678;14.080;2022-09-09T15:01:10;1.00;;;0.90;;
6840;SDS011;3458;53.678;14.080;2022-09-09T15:03:38;4.10;;;1.60;;
6840;SDS011;3458;53.678;14.080;2022-09-09T15:06:05;1.63;;;1.00;;
6840;SDS011;3458;53.678;14.080;2022-09-09T15:08:33;1.67;;;1.57;;
6840;SDS011;3458;53.678;14.080;2022-09-09T15:11:00;4.60;;;1.83;;
6840;SDS011;3458;53.678;14.080;2022-09-09T15:13:26;2.53;;;1.40;;
6840;SDS011;3458;53.678;14.080;2022-09-09T15:15:52;1.30;;;1.20;;
6840;SDS011;3458;53.678;14.080;2022-09-09T15:18:19;2.73;;;1.13;;
6840;SDS011;3458;53.678;14.080;2022-09-09T15:20:45;2.83;;;1.47;;
6840;SDS011;3458;53.678;14.080;2022-09-09T15:23:11;2.67;;;1.27;;
6840;SDS011;3458;53.678;14.080;2022-09-09T15:25:37;2.93;;;1.20;;
6840;SDS011;3458;53.678;14.080;2022-09-09T15:28:02;3.93;;;1.50;;
6840;SDS011;3458;53.678;14.080;2022-09-09T15:30:28;2.77;;;1.47;;
6840;SDS011;3458;53.678;14.080;2022-09-09T15:32:54;1.50;;;1.13;;
6840;SDS011;3458;53.678;14.080;2022-09-09T15:35:19;2.20;;;1.20;;
6840;SDS011;3458;53.678;14.080;2022-09-09T15:37:45;7.70;;;1.73;;
6840;SDS011;3458;53.678;14.080;2022-09-09T15:40:10;4.47;;;1.60;;
6840;SDS011;3458;53.678;14.080;2022-09-09T15:42:36;4.00;;;1.60;;
6840;SDS011;3458;53.678;14.080;2022-09-09T15:45:02;2.07;;;1.33;;
6840;SDS011;3458;53.678;14.080;2022-09-09T15:47:30;6.03;;;2.30;;
6840;SDS011;3458;53.678;14.080;2022-09-09T15:49:55;4.10;;;1.60;;
6840;SDS011;3458;53.678;14.080;2022-09-09T15:52:21;1.80;;;1.40;;
6840;SDS011;3458;53.678;14.080;2022-09-09T15:54:46;7.13;;;1.60;;
6840;SDS011;3458;53.678;14.080;2022-09-09T15:57:14;3.87;;;2.77;;
6840;SDS011;3458;53.678;14.080;2022-09-09T15:59:39;2.80;;;2.00;;
6840;SDS011;3458;53.678;14.080;2022-09-09T16:02:05;4.67;;;1.93;;
6840;SDS011;3458;53.678;14.080;2022-09-09T16:04:31;6.97;;;1.30;;
6840;SDS011;3458;53.678;14.080;2022-09-09T16:06:59;3.80;;;1.63;;
6840;SDS011;3458;53.678;14.080;2022-09-09T16:09:29;4.87;;;2.63;;
6840;SDS011;3458;53.678;14.080;2022-09-09T16:11:59;8.27;;;2.80;;
6840;SDS011;3458;53.678;14.080;2022-09-09T16:14:31;5.90;;;1.87;;
6840;SDS011;3458;53.678;14.080;2022-09-09T16:16:59;2.90;;;1.60;;
6840;SDS011;3458;53.678;14.080;2022-09-09T16:19:25;18.07;;;2.50;;
6840;SDS011;3458;53.678;14.080;2022-09-09T16:21:50;7.17;;;3.37;;
6840;SDS011;3458;53.678;14.080;2022-09-09T16:24:17;14.50;;;3.93;;
6840;SDS011;3458;53.678;14.080;2022-09-09T16:26:45;5.90;;;2.40;;
6840;SDS011;3458;53.678;14.080;2022-09-09T16:29:12;11.97;;;2.20;;
6840;SDS011;3458;53.678;14.080;2022-09-09T16:31:39;10.43;;;2.37;;
6840;SDS011;3458;53.678;14.080;2022-09-09T16:34:05;6.93;;;2.57;;
6840;SDS011;3458;53.678;14.080;2022-09-09T16:36:33;4.80;;;2.40;;
6840;SDS011;3458;53.678;14.080;2022-09-09T16:39:01;9.13;;;3.20;;
6840;SDS011;3458;53.678;14.080;2022-09-09T16:41:30;9.00;;;2.87;;
6840;SDS011;3458;53.678;14.080;2022-09-09T16:43:59;8.07;;;2.70;;
6840;SDS011;3458;53.678;14.080;2022-09-09T16:46:27;9.30;;;3.20;;
6840;SDS011;3458;53.678;14.080;2022-09-09T16:48:55;4.77;;;2.57;;
6840;SDS011;3458;53.678;14.080;2022-09-09T16:51:27;11.60;;;3.80;;